Arthur Maersk — OXJH2 — position and weather

sailwx.info

Track history (hours):
 
Tides and Currents Weather Stations Pressure Air Temp Water Temp Dewpoint Dewpoint Depression Visibility Wind Speed Wind Dir Waves Ship Positions

Arthur Maersk

Last reported at 2014-Nov-23 03:20 UTC. Time now 2014-Nov-24 09:26 UTC.
Position N 39°29' W 073°52'.

Length 352 m; draft 12 m.

Type: Cargo ship. MMSI: 220221000.

Date/timePositionNaut miles runAvg speedWind from/ knotsBaromVisibWave heightAir tempDewpointWater temp
2014-Nov-23 03:20N 39°29' W 073°52'4 5.7
2014-Nov-23 02:33N 39°33' W 073°52'6 5.6
2014-Nov-23 01:33N 39°39' W 073°52'6 5.7
2014-Nov-23 00:33N 39°45' W 073°51'6 5.8
2014-Nov-22 23:33N 39°50' W 073°51'6 5.9
2014-Nov-22 22:33N 39°56' W 073°50'7 6.1
2014-Nov-22 21:26N 40°03' W 073°50'6 6.3
2014-Nov-22 20:33N 40°09' W 073°50'19 6.5
2014-Nov-22 17:33N 40°28' W 073°52'1211.7
2014-Nov-22 16:33N 40°36' W 074°03'6 5.6
2014-Nov-22 15:33N 40°39' W 074°09'0 0.4
2014-Nov-22 14:25N 40°40' W 074°09'0 0.0
2014-Nov-22 11:16N 40°40' W 074°09'0 0.0
2014-Nov-22 10:28N 40°40' W 074°09'0 0.0
2014-Nov-22 06:32N 40°40' W 074°09'0 0.0
2014-Nov-22 05:32N 40°40' W 074°09'0 0.0
2014-Nov-22 04:31N 40°40' W 074°09'0 0.0
2014-Nov-22 03:25N 40°40' W 074°09'0 0.0
2014-Nov-22 02:33N 40°40' W 074°09'0 0.0
2014-Nov-22 01:31N 40°40' W 074°09'0 0.0
2014-Nov-22 00:25N 40°40' W 074°09'0 0.0
2014-Nov-21 23:25N 40°40' W 074°09'0 0.0
2014-Nov-21 22:31N 40°40' W 074°09'0 0.0
2014-Nov-21 21:23N 40°40' W 074°09'0 0.0
2014-Nov-21 20:33N 40°40' W 074°09'0 0.0
2014-Nov-21 19:29N 40°40' W 074°09'0 0.0
2014-Nov-21 18:28N 40°40' W 074°09'0 0.0
2014-Nov-21 17:31N 40°40' W 074°09'0 0.0
2014-Nov-21 16:30N 40°40' W 074°09'0 0.0
2014-Nov-21 15:32N 40°40' W 074°09'0 0.0
2014-Nov-21 14:19N 40°40' W 074°09'0 0.0
2014-Nov-21 13:31N 40°40' W 074°09'0 0.0
2014-Nov-21 12:28N 40°40' W 074°09'0 0.0
2014-Nov-21 08:32N 40°40' W 074°09'0 0.0
2014-Nov-21 07:32N 40°40' W 074°09'0 0.0
2014-Nov-21 06:32N 40°40' W 074°09'0 0.0
2014-Nov-21 05:29N 40°40' W 074°09'0 0.0
2014-Nov-21 04:32N 40°40' W 074°09'0 0.0
2014-Nov-21 03:32N 40°40' W 074°09'0 0.0
2014-Nov-21 02:26N 40°40' W 074°09'0 0.0
2014-Nov-21 01:29N 40°40' W 074°09'0 0.0
2014-Nov-21 00:23N 40°40' W 074°09'0 0.0
2014-Nov-20 23:32N 40°40' W 074°09'0 0.0
2014-Nov-20 22:33N 40°40' W 074°09'3 3.0
2014-Nov-20 21:34N 40°39' W 074°05'7 6.8
2014-Nov-20 20:33N 40°33' W 074°02'60 8.6
2014-Nov-20 13:33N 40°30' W 072°42'1110.7
2014-Nov-20 12:33N 40°31' W 072°28'8 8.2
2014-Nov-20 11:33N 40°31' W 072°17'7 6.6
2014-Nov-20 10:33N 40°31' W 072°09'7 6.7
2014-Nov-20 09:33N 40°31' W 071°60'7 6.8
2014-Nov-20 08:33N 40°31' W 071°51'7 6.9
2014-Nov-20 07:33N 40°31' W 071°42'7 7.2
2014-Nov-20 06:33N 40°31' W 071°32'7 7.2
2014-Nov-20 05:33N 40°31' W 071°23'7 6.9
2014-Nov-20 04:33N 40°32' W 071°14'7 6.7
2014-Nov-20 03:33N 40°32' W 071°05'7 6.8
2014-Nov-20 02:33N 40°32' W 070°56'7 6.9
2014-Nov-20 01:32N 40°33' W 070°47'7 7.2
2014-Nov-20 00:33N 40°34' W 070°38'8 7.2
2014-Nov-19 23:31N 40°34' W 070°28'9 7.3
2014-Nov-19 22:14N 40°34' W 070°16'8 7.7
2014-Nov-19 21:12N 40°34' W 070°05'5 7.9
2014-Nov-19 20:33N 40°34' W 069°58'  
2014-Nov-15 16:31N 37°56' W 030°48'2119.0
2014-Nov-15 15:24N 37°50' W 030°22'1618.9
2014-Nov-15 14:33N 37°46' W 030°02'1918.7
2014-Nov-15 13:33N 37°41' W 029°40'1918.6
2014-Nov-15 12:33N 37°35' W 029°17'1918.5
2014-Nov-15 11:33N 37°30' W 028°55'1818.3
2014-Nov-15 10:34N 37°25' W 028°33'1918.7
2014-Nov-15 09:33N 37°20' W 028°10'1919.2
2014-Nov-15 08:33N 37°14' W 027°47'2419.5
2014-Nov-15 07:19N 37°06' W 027°18'1519.6
2014-Nov-15 06:33N 37°01' W 027°00'1919.5
2014-Nov-15 05:34N 36°55' W 026°37'2019.5
2014-Nov-15 04:33N 36°49' W 026°14'1919.2
2014-Nov-15 03:34N 36°44' W 025°51'1918.9
2014-Nov-15 02:33N 36°38' W 025°29'1919.2
2014-Nov-15 01:34N 36°32' W 025°06'1918.9
2014-Nov-15 00:33N 36°29' W 024°43'2019.7
2014-Nov-14 23:34N 36°29' W 024°18'1919.4
2014-Nov-14 22:33N 36°28' W 023°54'1919.0
2014-Nov-14 21:32N 36°27' W 023°30'  
Track history (hours):
 
Tides and Currents Weather Stations Pressure Air Temp Water Temp Dewpoint Dewpoint Depression Visibility Wind Speed Wind Dir Waves Ship Positions

Arthur Maersk

Last reported at 2014-Nov-23 03:20 UTC. Time now 2014-Nov-24 09:26 UTC.
Position N 39°29' W 073°52'.

Length 352 m; draft 12 m.

Type: Cargo ship. MMSI: 220221000.

Date/timePositionNaut miles runAvg speedWind from/ knotsBaromVisibWave heightAir tempDewpointWater temp
2014-Nov-23 03:20N 39°29' W 073°52'4 5.7
2014-Nov-23 02:33N 39°33' W 073°52'6 5.6
2014-Nov-23 01:33N 39°39' W 073°52'6 5.7
2014-Nov-23 00:33N 39°45' W 073°51'6 5.8
2014-Nov-22 23:33N 39°50' W 073°51'6 5.9
2014-Nov-22 22:33N 39°56' W 073°50'7 6.1
2014-Nov-22 21:26N 40°03' W 073°50'6 6.3
2014-Nov-22 20:33N 40°09' W 073°50'19 6.5
2014-Nov-22 17:33N 40°28' W 073°52'1211.7
2014-Nov-22 16:33N 40°36' W 074°03'6 5.6
2014-Nov-22 15:33N 40°39' W 074°09'0 0.4
2014-Nov-22 14:25N 40°40' W 074°09'0 0.0
2014-Nov-22 11:16N 40°40' W 074°09'0 0.0
2014-Nov-22 10:28N 40°40' W 074°09'0 0.0
2014-Nov-22 06:32N 40°40' W 074°09'0 0.0
2014-Nov-22 05:32N 40°40' W 074°09'0 0.0
2014-Nov-22 04:31N 40°40' W 074°09'0 0.0
2014-Nov-22 03:25N 40°40' W 074°09'0 0.0
2014-Nov-22 02:33N 40°40' W 074°09'0 0.0
2014-Nov-22 01:31N 40°40' W 074°09'0 0.0
2014-Nov-22 00:25N 40°40' W 074°09'0 0.0
2014-Nov-21 23:25N 40°40' W 074°09'0 0.0
2014-Nov-21 22:31N 40°40' W 074°09'0 0.0
2014-Nov-21 21:23N 40°40' W 074°09'0 0.0
2014-Nov-21 20:33N 40°40' W 074°09'0 0.0
2014-Nov-21 19:29N 40°40' W 074°09'0 0.0
2014-Nov-21 18:28N 40°40' W 074°09'0 0.0
2014-Nov-21 17:31N 40°40' W 074°09'0 0.0
2014-Nov-21 16:30N 40°40' W 074°09'0 0.0
2014-Nov-21 15:32N 40°40' W 074°09'0 0.0
2014-Nov-21 14:19N 40°40' W 074°09'0 0.0
2014-Nov-21 13:31N 40°40' W 074°09'0 0.0
2014-Nov-21 12:28N 40°40' W 074°09'0 0.0
2014-Nov-21 08:32N 40°40' W 074°09'0 0.0
2014-Nov-21 07:32N 40°40' W 074°09'0 0.0
2014-Nov-21 06:32N 40°40' W 074°09'0 0.0
2014-Nov-21 05:29N 40°40' W 074°09'0 0.0
2014-Nov-21 04:32N 40°40' W 074°09'0 0.0
2014-Nov-21 03:32N 40°40' W 074°09'0 0.0
2014-Nov-21 02:26N 40°40' W 074°09'0 0.0
2014-Nov-21 01:29N 40°40' W 074°09'0 0.0
2014-Nov-21 00:23N 40°40' W 074°09'0 0.0
2014-Nov-20 23:32N 40°40' W 074°09'0 0.0
2014-Nov-20 22:33N 40°40' W 074°09'3 3.0
2014-Nov-20 21:34N 40°39' W 074°05'7 6.8
2014-Nov-20 20:33N 40°33' W 074°02'60 8.6
2014-Nov-20 13:33N 40°30' W 072°42'1110.7
2014-Nov-20 12:33N 40°31' W 072°28'8 8.2
2014-Nov-20 11:33N 40°31' W 072°17'7 6.6
2014-Nov-20 10:33N 40°31' W 072°09'7 6.7
2014-Nov-20 09:33N 40°31' W 071°60'7 6.8
2014-Nov-20 08:33N 40°31' W 071°51'7 6.9
2014-Nov-20 07:33N 40°31' W 071°42'7 7.2
2014-Nov-20 06:33N 40°31' W 071°32'7 7.2
2014-Nov-20 05:33N 40°31' W 071°23'7 6.9
2014-Nov-20 04:33N 40°32' W 071°14'7 6.7
2014-Nov-20 03:33N 40°32' W 071°05'7 6.8
2014-Nov-20 02:33N 40°32' W 070°56'7 6.9
2014-Nov-20 01:32N 40°33' W 070°47'7 7.2
2014-Nov-20 00:33N 40°34' W 070°38'8 7.2
2014-Nov-19 23:31N 40°34' W 070°28'9 7.3
2014-Nov-19 22:14N 40°34' W 070°16'8 7.7
2014-Nov-19 21:12N 40°34' W 070°05'5 7.9
2014-Nov-19 20:33N 40°34' W 069°58'  
2014-Nov-15 16:31N 37°56' W 030°48'2119.0
2014-Nov-15 15:24N 37°50' W 030°22'1618.9
2014-Nov-15 14:33N 37°46' W 030°02'1918.7
2014-Nov-15 13:33N 37°41' W 029°40'1918.6
2014-Nov-15 12:33N 37°35' W 029°17'1918.5
2014-Nov-15 11:33N 37°30' W 028°55'1818.3
2014-Nov-15 10:34N 37°25' W 028°33'1918.7
2014-Nov-15 09:33N 37°20' W 028°10'1919.2
2014-Nov-15 08:33N 37°14' W 027°47'2419.5
2014-Nov-15 07:19N 37°06' W 027°18'1519.6
2014-Nov-15 06:33N 37°01' W 027°00'1919.5
2014-Nov-15 05:34N 36°55' W 026°37'2019.5
2014-Nov-15 04:33N 36°49' W 026°14'1919.2
2014-Nov-15 03:34N 36°44' W 025°51'1918.9
2014-Nov-15 02:33N 36°38' W 025°29'1919.2
2014-Nov-15 01:34N 36°32' W 025°06'1918.9
2014-Nov-15 00:33N 36°29' W 024°43'2019.7
2014-Nov-14 23:34N 36°29' W 024°18'1919.4
2014-Nov-14 22:33N 36°28' W 023°54'1919.0
2014-Nov-14 21:32N 36°27' W 023°30'  

Dump ship's entire track history